Terminal Aerodrome Forecast
Issued by NWS

Home | Current Version | Previous Version | Graphics & Text | Print | Product List | Glossary On
Versions: 1 2 3 4 5 6 7 8 9 10 11 12 13 14 15
000
FTUS43 KMPX 192200 AAA
TAFRNH
TAF AMD
KRNH 192203Z 1922/2018 20012KT P6SM SCT030 BKN045
     FM200800 25008KT P6SM BKN250
     FM201200 29009KT P6SM FEW250=

USA.gov is the U.S. government's official web portal to all federal, state and local government web resources and services.